createdAt,value
2017-06-06T00:02:07.913Z,8.93
2017-06-06T00:04:35.491Z,8.75
2017-06-06T00:07:03.803Z,8.82
2017-06-06T00:18:11.620Z,9.70
2017-06-06T00:20:39.171Z,10.35
2017-06-06T00:23:06.725Z,9.23
2017-06-06T00:25:34.508Z,11.43
2017-06-06T00:28:02.059Z,10.65
2017-06-06T00:30:29.608Z,9.55
2017-06-06T00:32:57.388Z,9.50
2017-06-06T00:35:24.940Z,11.68
2017-06-06T00:37:52.524Z,12.65
2017-06-06T00:40:20.580Z,12.50
2017-06-06T00:42:48.137Z,11.05
2017-06-06T00:45:15.693Z,12.18
2017-06-06T00:47:43.280Z,13.60
2017-06-06T00:50:11.595Z,12.48
2017-06-06T00:52:39.186Z,13.73
2017-06-06T00:55:06.860Z,15.25
2017-06-06T00:57:34.411Z,13.43
2017-06-06T01:00:01.963Z,13.23
2017-06-06T01:02:29.645Z,14.75
2017-06-06T01:04:57.203Z,14.63
2017-06-06T01:07:24.751Z,13.32
2017-06-06T01:09:52.521Z,14.45
2017-06-06T01:12:20.076Z,15.63
2017-06-06T01:14:47.633Z,15.45
2017-06-06T01:17:15.224Z,13.80
2017-06-06T01:19:43.546Z,15.48
2017-06-06T01:22:11.105Z,15.15
2017-06-06T01:24:42.754Z,13.57
2017-06-06T01:27:16.048Z,14.68
2017-06-06T01:29:43.724Z,14.85
2017-06-06T01:32:11.277Z,15.02
2017-06-06T01:34:38.836Z,16.05
2017-06-06T01:37:06.536Z,15.68
2017-06-06T01:39:34.096Z,13.90
2017-06-06T01:42:01.652Z,14.07
2017-06-06T01:44:29.403Z,15.32
2017-06-06T01:46:56.953Z,14.15
2017-06-06T01:49:24.507Z,13.98
2017-06-06T01:51:52.288Z,15.68
2017-06-06T01:54:19.874Z,14.50
2017-06-06T01:56:48.192Z,15.38
2017-06-06T01:59:16.167Z,14.27
2017-06-06T02:01:43.731Z,15.35
2017-06-06T02:04:11.294Z,15.55
2017-06-06T02:06:38.879Z,15.70
2017-06-06T02:09:06.431Z,15.40
2017-06-06T02:11:33.984Z,16.00
2017-06-06T02:14:01.884Z,16.73
2017-06-06T02:16:30.203Z,14.75
2017-06-06T02:18:57.754Z,15.40
2017-06-06T02:21:25.661Z,17.65
2017-06-06T02:23:53.213Z,17.00
2017-06-06T02:26:20.772Z,15.93
2017-06-06T02:28:48.372Z,19.40
2017-06-06T02:31:15.923Z,17.73
2017-06-06T02:33:44.240Z,17.15
2017-06-06T02:36:12.011Z,17.35
2017-06-06T02:38:39.567Z,17.87
2017-06-06T02:41:07.121Z,16.17
2017-06-06T02:43:34.807Z,17.85
2017-06-06T02:46:02.365Z,17.15
2017-06-06T02:48:29.915Z,17.25
2017-06-06T02:50:57.732Z,18.60
2017-06-06T02:53:26.051Z,18.62
2017-06-06T02:55:53.612Z,18.85
2017-06-06T02:58:21.505Z,17.00
2017-06-06T03:00:49.068Z,17.33
2017-06-06T03:03:16.624Z,19.33
2017-06-06T03:05:44.223Z,18.02
2017-06-06T03:08:11.779Z,18.15
2017-06-06T03:10:39.336Z,16.27
2017-06-06T03:13:06.943Z,18.12
2017-06-06T03:15:34.495Z,17.40
2017-06-06T03:18:02.049Z,16.23
2017-06-06T03:20:30.043Z,17.02
2017-06-06T03:22:57.595Z,19.45
2017-06-06T03:25:25.148Z,18.02
2017-06-06T03:27:52.731Z,17.52
2017-06-06T03:30:20.280Z,16.90
2017-06-06T03:32:47.836Z,17.75
2017-06-06T03:35:15.435Z,17.55
2017-06-06T03:37:43.757Z,16.85
2017-06-06T03:40:11.327Z,17.30
2017-06-06T03:42:38.952Z,17.12
2017-06-06T03:45:06.492Z,17.12
2017-06-06T03:47:34.051Z,17.67
2017-06-06T03:50:02.599Z,16.37
2017-06-06T03:52:30.151Z,18.08
2017-06-06T03:54:57.704Z,17.60
2017-06-06T03:57:26.073Z,16.02
2017-06-06T03:59:53.633Z,16.20
2017-06-06T04:02:21.193Z,17.23
2017-06-06T04:04:48.793Z,15.95
2017-06-06T04:07:16.351Z,16.10
2017-06-06T04:09:44.671Z,17.80
2017-06-06T04:12:12.355Z,15.23
2017-06-06T04:14:39.915Z,16.48
2017-06-06T04:17:07.467Z,17.10
2017-06-06T04:19:35.065Z,15.07
2017-06-06T04:22:03.388Z,16.52
2017-06-06T04:24:30.945Z,14.07
2017-06-06T04:26:58.568Z,16.23
2017-06-06T04:29:26.120Z,16.45
2017-06-06T04:31:53.677Z,16.02
2017-06-06T04:34:21.296Z,15.70
2017-06-06T04:36:48.878Z,13.85
2017-06-06T04:39:16.432Z,16.30
2017-06-06T04:41:44.027Z,18.20
2017-06-06T04:44:12.353Z,17.35
2017-06-06T04:46:40.028Z,14.13
2017-06-06T04:49:07.691Z,16.02
2017-06-06T04:51:35.240Z,16.52
2017-06-06T04:54:02.799Z,16.98
2017-06-06T04:56:30.396Z,17.15
2017-06-06T04:58:58.743Z,15.07
2017-06-06T05:01:26.299Z,17.50
2017-06-06T05:03:54.089Z,16.35
2017-06-06T05:06:21.651Z,14.57
2017-06-06T05:08:49.213Z,15.93
2017-06-06T05:11:16.897Z,16.12
2017-06-06T05:13:44.460Z,15.30
2017-06-06T05:16:12.021Z,12.55
2017-06-06T05:18:39.616Z,14.07
2017-06-06T05:21:07.169Z,14.20
2017-06-06T05:23:34.724Z,15.70
2017-06-06T05:26:02.625Z,13.88
2017-06-06T05:28:30.175Z,13.57
2017-06-06T05:30:57.732Z,11.82
2017-06-06T05:33:25.365Z,12.95
2017-06-06T05:35:52.932Z,13.23
2017-06-06T05:38:20.488Z,12.73
2017-06-06T05:40:48.186Z,13.27
2017-06-06T05:43:15.745Z,13.93
2017-06-06T05:45:43.304Z,13.18
2017-06-06T05:48:10.892Z,14.63
2017-06-06T05:50:38.461Z,12.15
2017-06-06T05:53:06.021Z,13.65
2017-06-06T05:55:33.695Z,12.65
2017-06-06T05:58:01.259Z,13.05
2017-06-06T06:00:28.815Z,13.52
2017-06-06T06:02:56.427Z,12.63
2017-06-06T06:05:23.980Z,11.77
2017-06-06T06:07:51.544Z,11.38
2017-06-06T06:10:19.144Z,10.75
2017-06-06T06:12:46.713Z,11.48
2017-06-06T06:15:14.267Z,11.23
2017-06-06T06:17:42.184Z,10.57
2017-06-06T06:20:09.731Z,10.10
2017-06-06T06:22:37.296Z,9.60
2017-06-06T06:25:05.185Z,9.30
2017-06-06T06:27:32.736Z,9.75
2017-06-06T06:30:00.283Z,9.50
2017-06-06T06:32:27.872Z,8.32
2017-06-06T06:34:56.217Z,7.65
2017-06-06T06:37:23.778Z,9.05
2017-06-06T06:39:51.455Z,8.48
2017-06-06T06:42:19.002Z,8.38
2017-06-06T06:44:46.554Z,7.87
2017-06-06T06:47:14.388Z,8.13
2017-06-06T06:49:41.960Z,7.72
2017-06-06T06:52:10.309Z,7.00
2017-06-06T06:54:37.936Z,6.78
2017-06-06T06:57:05.543Z,7.40
2017-06-06T06:59:33.090Z,8.23
2017-06-06T07:02:02.031Z,8.13
2017-06-06T07:04:29.595Z,8.20
2017-06-06T07:06:57.164Z,7.65
2017-06-06T07:09:25.612Z,7.05
2017-06-06T07:11:53.164Z,15.85
2017-06-06T07:14:20.726Z,6.87
2017-06-06T07:16:48.412Z,8.68
2017-06-06T07:19:15.965Z,7.40
2017-06-06T07:21:43.515Z,8.10
2017-06-06T07:24:11.200Z,8.25
2017-06-06T07:26:38.752Z,7.62
2017-06-06T07:29:06.304Z,7.93
2017-06-06T07:31:34.152Z,7.78
2017-06-06T07:34:01.760Z,6.55
2017-06-06T07:36:30.101Z,7.82
2017-06-06T07:38:57.995Z,7.10
2017-06-06T07:41:25.548Z,7.03
2017-06-06T07:43:53.092Z,6.78
2017-06-06T07:46:20.703Z,7.28
2017-06-06T07:48:48.263Z,6.78
2017-06-06T07:51:15.819Z,6.57
2017-06-06T07:53:43.496Z,5.70
2017-06-06T07:56:11.053Z,7.05
2017-06-06T07:58:38.606Z,7.37
2017-06-06T08:01:06.196Z,7.95
2017-06-06T08:03:33.753Z,6.68
2017-06-06T08:06:01.303Z,7.37
2017-06-06T08:08:28.929Z,7.50
2017-06-06T08:10:56.487Z,7.32
2017-06-06T08:13:24.808Z,7.65
2017-06-06T08:15:52.595Z,7.85
2017-06-06T08:18:20.159Z,6.68
2017-06-06T08:20:47.709Z,8.60
2017-06-06T08:23:15.416Z,8.00
2017-06-06T08:25:42.971Z,7.25
2017-06-06T08:28:10.528Z,7.93
2017-06-06T08:30:38.212Z,9.88
2017-06-06T08:33:05.772Z,7.78
2017-06-06T08:35:33.336Z,7.20
2017-06-06T08:38:01.027Z,7.28
2017-06-06T08:40:28.599Z,6.82
2017-06-06T08:42:56.157Z,7.05
2017-06-06T08:45:24.164Z,7.43
2017-06-06T08:47:51.721Z,6.40
2017-06-06T08:50:19.275Z,6.53
2017-06-06T08:52:47.833Z,6.78
2017-06-06T08:55:15.396Z,5.93
2017-06-06T08:57:42.956Z,5.72
2017-06-06T09:00:10.709Z,6.63
2017-06-06T09:02:38.270Z,5.87
2017-06-06T09:05:05.843Z,6.00
2017-06-06T09:07:34.516Z,5.53
2017-06-06T09:10:02.076Z,5.30
2017-06-06T09:12:29.649Z,4.90
2017-06-06T09:14:57.345Z,5.57
2017-06-06T09:17:24.898Z,5.10
2017-06-06T09:19:52.453Z,5.00
2017-06-06T09:22:20.051Z,5.20
2017-06-06T09:24:47.595Z,4.90
2017-06-06T09:27:15.138Z,4.20
2017-06-06T09:29:42.835Z,4.50
2017-06-06T09:32:10.387Z,4.90
2017-06-06T09:34:37.945Z,4.87
2017-06-06T09:37:05.628Z,5.77
2017-06-06T09:39:33.175Z,5.57
2017-06-06T09:42:00.725Z,5.93
2017-06-06T09:44:28.317Z,5.50
2017-06-06T09:46:55.871Z,5.80
2017-06-06T09:49:23.419Z,5.20
2017-06-06T09:51:51.196Z,5.30
2017-06-06T09:54:18.748Z,6.33
2017-06-06T09:56:46.301Z,4.97
2017-06-06T09:59:14.184Z,5.37
2017-06-06T10:01:41.729Z,6.13
2017-06-06T10:04:09.286Z,5.20
2017-06-06T10:06:37.367Z,5.87
2017-06-06T10:09:04.934Z,5.70
2017-06-06T10:11:32.479Z,7.30
2017-06-06T10:14:00.068Z,5.57
2017-06-06T10:16:28.382Z,5.63
2017-06-06T10:18:55.942Z,5.37
2017-06-06T10:21:23.616Z,5.83
2017-06-06T10:23:51.165Z,6.00
2017-06-06T10:26:18.716Z,5.40
2017-06-06T10:28:46.387Z,5.67
2017-06-06T10:31:13.944Z,5.90
2017-06-06T10:33:41.495Z,5.57
2017-06-06T10:36:09.175Z,8.17
2017-06-06T10:38:36.718Z,5.10
2017-06-06T10:41:04.276Z,6.57
2017-06-06T10:43:31.976Z,5.50
2017-06-06T10:45:59.544Z,5.10
2017-06-06T10:48:27.099Z,6.60
2017-06-06T10:50:54.700Z,6.20
2017-06-06T10:53:22.252Z,5.93
2017-06-06T10:55:50.567Z,6.87
2017-06-06T10:58:18.260Z,6.43
2017-06-06T11:00:45.808Z,6.13
2017-06-06T11:03:13.360Z,6.33
2017-06-06T11:05:41.040Z,6.37
2017-06-06T11:08:08.591Z,6.87
2017-06-06T11:10:36.135Z,5.80
2017-06-06T11:13:03.812Z,6.57
2017-06-06T11:15:31.364Z,6.30
2017-06-06T11:17:58.916Z,6.57
2017-06-06T11:20:26.808Z,6.80
2017-06-06T11:22:54.358Z,6.33
2017-06-06T11:25:21.913Z,6.30
2017-06-06T11:27:49.686Z,6.07
2017-06-06T11:30:17.243Z,6.23
2017-06-06T11:32:44.791Z,5.90
2017-06-06T11:35:12.476Z,5.50
2017-06-06T11:37:40.024Z,6.20
2017-06-06T11:40:07.596Z,5.47
2017-06-06T11:42:35.354Z,5.50
2017-06-06T11:45:02.916Z,5.70
2017-06-06T11:47:30.462Z,4.90
2017-06-06T11:49:58.060Z,6.47
2017-06-06T11:52:26.379Z,4.83
2017-06-06T11:54:53.925Z,4.93
2017-06-06T11:57:21.589Z,5.80
2017-06-06T11:59:49.144Z,5.10
2017-06-06T12:02:16.723Z,6.00
2017-06-06T12:04:44.313Z,4.23
2017-06-06T12:07:11.877Z,4.10
2017-06-06T12:09:39.428Z,4.37
2017-06-06T12:12:07.024Z,3.30
2017-06-06T12:14:34.576Z,3.73
2017-06-06T12:17:02.126Z,3.63
2017-06-06T12:19:30.689Z,3.10
2017-06-06T12:21:58.237Z,3.60
2017-06-06T12:24:25.784Z,4.20
2017-06-06T12:27:28.052Z,2.90
2017-06-06T12:29:55.607Z,2.70
2017-06-06T12:32:23.163Z,2.83
2017-06-06T12:34:51.792Z,2.60
2017-06-06T12:37:20.145Z,2.80
2017-06-06T12:39:47.693Z,2.77
2017-06-06T12:42:15.307Z,2.90
2017-06-06T12:44:43.620Z,2.60
2017-06-06T12:47:11.173Z,2.80
2017-06-06T12:49:38.854Z,2.50
2017-06-06T12:52:06.412Z,3.03
2017-06-06T12:54:33.969Z,2.70
2017-06-06T12:57:01.641Z,3.63
2017-06-06T12:59:29.191Z,2.60
2017-06-06T13:01:56.743Z,3.43
2017-06-06T13:04:24.527Z,3.10
2017-06-06T13:06:52.084Z,3.23
2017-06-06T13:09:19.634Z,3.10
2017-06-06T13:11:47.540Z,3.30
2017-06-06T13:14:15.202Z,3.27
2017-06-06T13:16:42.764Z,3.20
2017-06-06T13:19:11.138Z,3.80
2017-06-06T13:21:38.784Z,2.67
2017-06-06T13:24:06.339Z,3.60
2017-06-06T13:26:33.940Z,2.50
2017-06-06T13:29:01.499Z,3.87
2017-06-06T13:31:29.051Z,3.70
2017-06-06T13:33:56.639Z,3.00
2017-06-06T13:36:24.478Z,2.50
2017-06-06T13:38:52.034Z,4.77
2017-06-06T13:41:19.643Z,3.67
2017-06-06T13:43:47.198Z,5.37
2017-06-06T13:46:14.753Z,3.87
2017-06-06T13:48:42.343Z,3.50
2017-06-06T13:51:09.890Z,2.90
2017-06-06T13:53:37.478Z,2.97
2017-06-06T13:56:05.414Z,2.77
2017-06-06T13:58:32.969Z,8.33
2017-06-06T14:01:00.521Z,6.00
2017-06-06T14:03:28.129Z,4.03
2017-06-06T14:05:56.452Z,4.27
2017-06-06T14:08:24.016Z,6.20
2017-06-06T14:10:51.873Z,3.83
2017-06-06T14:13:19.433Z,5.90
2017-06-06T14:15:47.023Z,3.43
2017-06-06T14:18:14.700Z,2.77
2017-06-06T14:20:42.274Z,3.80
2017-06-06T14:23:09.827Z,2.90
2017-06-06T14:25:38.212Z,2.47
2017-06-06T14:28:05.772Z,3.70
2017-06-06T14:30:34.096Z,2.10
2017-06-06T14:33:01.802Z,2.10
2017-06-06T14:35:29.380Z,1.87
2017-06-06T14:37:57.183Z,3.07
2017-06-06T14:40:24.992Z,2.57
2017-06-06T14:42:53.322Z,2.17
2017-06-06T14:45:20.881Z,1.97
2017-06-06T14:47:48.684Z,2.17
2017-06-06T14:50:16.252Z,3.13
2017-06-06T14:52:44.577Z,2.40
2017-06-06T14:55:12.350Z,2.47
2017-06-06T14:57:39.935Z,3.23
2017-06-06T15:00:07.499Z,3.43
2017-06-06T15:02:35.361Z,4.53
2017-06-06T15:05:02.907Z,2.70
2017-06-06T15:07:30.464Z,2.63
2017-06-06T15:09:58.084Z,3.53
2017-06-06T15:12:25.652Z,3.70
2017-06-06T15:14:53.202Z,3.90
2017-06-06T15:17:20.812Z,3.03
2017-06-06T15:19:48.367Z,0.90
2017-06-06T15:22:15.921Z,0.80
2017-06-06T15:24:43.607Z,1.90
2017-06-06T15:27:11.924Z,1.55
2017-06-06T15:29:39.476Z,0.95
2017-06-06T15:32:07.071Z,6.05
2017-06-06T15:34:34.621Z,2.28
2017-06-06T15:37:02.266Z,1.70
2017-06-06T15:39:29.875Z,1.62
2017-06-06T15:41:57.439Z,3.22
2017-06-06T15:44:25.773Z,1.73
2017-06-06T15:46:53.361Z,2.25
2017-06-06T15:49:20.916Z,2.08
2017-06-06T15:51:48.464Z,2.33
2017-06-06T15:54:16.252Z,2.05
2017-06-06T15:56:43.791Z,1.90
2017-06-06T15:59:11.349Z,3.30
2017-06-06T16:01:39.240Z,2.33
2017-06-06T16:04:06.796Z,2.08
2017-06-06T16:06:34.358Z,2.62
2017-06-06T16:09:02.120Z,2.20
2017-06-06T16:11:29.679Z,2.25
2017-06-06T16:13:57.230Z,3.40
2017-06-06T16:16:24.916Z,3.22
2017-06-06T16:18:53.279Z,3.60
2017-06-06T16:21:20.904Z,5.07
2017-06-06T16:23:48.483Z,3.72
2017-06-06T16:26:16.045Z,2.92
2017-06-06T16:28:43.599Z,3.95
2017-06-06T16:31:11.484Z,3.47
2017-06-06T16:33:39.028Z,3.47
2017-06-06T16:36:06.576Z,4.47
2017-06-06T16:38:34.339Z,3.12
2017-06-06T16:41:01.889Z,3.80
2017-06-06T16:43:29.440Z,3.80
2017-06-06T16:45:57.140Z,3.90
2017-06-06T16:48:24.695Z,4.50
2017-06-06T16:50:52.244Z,4.72
2017-06-06T16:53:20.224Z,4.78
2017-06-06T16:55:47.772Z,5.00
2017-06-06T16:58:15.316Z,4.22
2017-06-06T17:00:42.911Z,5.30
2017-06-06T17:03:10.480Z,4.50
2017-06-06T17:05:38.028Z,4.57
2017-06-06T17:08:05.784Z,4.90
2017-06-06T17:10:33.377Z,5.78
2017-06-06T17:13:01.689Z,5.30
2017-06-06T17:15:29.264Z,5.78
2017-06-06T17:17:56.812Z,5.47
2017-06-06T17:20:24.364Z,7.10
2017-06-06T17:22:52.048Z,4.40
2017-06-06T17:25:19.593Z,4.97
2017-06-06T17:27:47.145Z,5.95
2017-06-06T17:30:15.054Z,7.82
2017-06-06T17:32:42.608Z,5.22
2017-06-06T17:35:10.167Z,5.40
2017-06-06T17:37:37.765Z,5.95
2017-06-06T17:40:05.324Z,5.28
2017-06-06T17:42:32.881Z,4.62
2017-06-06T17:45:00.851Z,4.25
2017-06-06T17:47:28.405Z,4.95
2017-06-06T17:49:56.721Z,6.03
2017-06-06T17:52:24.619Z,4.93
2017-06-06T17:54:52.169Z,5.30
2017-06-06T17:57:19.753Z,4.28
2017-06-06T17:59:48.139Z,9.85
2017-06-06T18:02:16.464Z,5.55
2017-06-06T18:04:44.014Z,6.68
2017-06-06T18:07:11.591Z,4.93
2017-06-06T18:09:39.147Z,4.82
2017-06-06T18:12:06.706Z,5.62
2017-06-06T18:14:34.503Z,4.65
2017-06-06T18:17:02.056Z,5.40
2017-06-06T18:19:29.603Z,4.30
2017-06-06T18:21:57.200Z,5.68
2017-06-06T18:24:24.771Z,5.50
2017-06-06T18:26:52.325Z,4.57
2017-06-06T18:29:20.280Z,8.43
2017-06-06T18:31:48.706Z,5.43
2017-06-06T18:34:16.264Z,5.03
2017-06-06T18:36:43.864Z,6.20
2017-06-06T18:39:11.426Z,4.97
2017-06-06T18:41:39.795Z,5.47
2017-06-06T18:44:07.461Z,5.18
2017-06-06T18:46:35.007Z,5.32
2017-06-06T18:49:02.560Z,4.93
2017-06-06T18:51:30.282Z,4.40
2017-06-06T18:53:57.832Z,4.72
2017-06-06T18:56:25.379Z,4.78
2017-06-06T18:58:54.011Z,4.78
2017-06-06T19:01:21.572Z,4.87
2017-06-06T19:03:49.128Z,5.85
2017-06-06T19:06:16.839Z,5.20
2017-06-06T19:08:44.396Z,5.32
2017-06-06T19:11:12.753Z,5.50
2017-06-06T19:13:40.344Z,5.75
2017-06-06T19:16:08.662Z,6.25
2017-06-06T19:18:36.222Z,5.18
2017-06-06T19:21:03.904Z,5.50
2017-06-06T19:23:31.460Z,5.53
2017-06-06T19:25:59.013Z,5.25
2017-06-06T19:28:26.887Z,6.00
2017-06-06T19:30:54.444Z,5.65
2017-06-06T19:33:22.000Z,5.00
2017-06-06T19:35:49.838Z,5.30
2017-06-06T19:38:17.412Z,5.20
2017-06-06T19:40:44.968Z,5.35
2017-06-06T19:43:12.561Z,5.62
2017-06-06T19:45:40.120Z,4.97
2017-06-06T19:48:07.726Z,3.80
2017-06-06T19:50:35.316Z,4.00
2017-06-06T19:53:02.867Z,5.78
2017-06-06T19:55:30.424Z,3.75
2017-06-06T19:57:58.224Z,2.50
2017-06-06T20:00:25.778Z,4.18
2017-06-06T20:02:53.338Z,3.60
2017-06-06T20:05:21.103Z,2.35
2017-06-06T20:07:48.699Z,2.90
2017-06-06T20:10:16.247Z,3.10
2017-06-06T20:12:45.444Z,3.15
2017-06-06T20:15:13.797Z,3.30
2017-06-06T20:17:41.348Z,3.22
2017-06-06T20:20:08.973Z,4.28
2017-06-06T20:22:36.883Z,2.37
2017-06-06T20:25:04.453Z,4.55
2017-06-06T20:27:32.949Z,3.20
2017-06-06T20:30:01.272Z,2.95
2017-06-06T20:32:28.855Z,2.80
2017-06-06T20:34:56.629Z,1.95
2017-06-06T20:37:24.195Z,3.85
2017-06-06T20:39:51.746Z,2.80
2017-06-06T20:42:19.360Z,3.67
2017-06-06T20:44:46.927Z,3.15
2017-06-06T20:47:14.494Z,5.20
2017-06-06T20:49:42.073Z,4.93
2017-06-06T20:52:09.623Z,2.95
2017-06-06T20:54:37.184Z,3.83
2017-06-06T20:57:04.784Z,2.15
2017-06-06T20:59:33.193Z,6.72
2017-06-06T21:02:00.795Z,2.55
2017-06-06T21:04:28.815Z,4.35
2017-06-06T21:06:56.362Z,3.22
2017-06-06T21:09:24.742Z,2.05
2017-06-06T21:11:52.391Z,7.97
2017-06-06T21:14:20.740Z,3.20
2017-06-06T21:16:48.291Z,4.90
2017-06-06T21:19:16.274Z,3.17
2017-06-06T21:21:43.833Z,4.35
2017-06-06T21:24:11.395Z,5.37
2017-06-06T21:26:38.997Z,3.50
2017-06-06T21:29:06.567Z,2.67
2017-06-06T21:31:34.295Z,4.45
2017-06-06T21:34:02.790Z,7.50
2017-06-06T21:36:30.399Z,4.85
2017-06-06T21:38:57.944Z,5.87
2017-06-06T21:41:25.623Z,2.85
2017-06-06T21:43:53.192Z,5.10
2017-06-06T21:46:20.877Z,4.90
2017-06-06T21:48:49.436Z,2.80
2017-06-06T21:51:18.736Z,2.85
2017-06-06T21:53:46.856Z,1.73
2017-06-06T21:56:14.672Z,2.60
2017-06-06T21:58:42.307Z,2.72
2017-06-06T22:01:09.856Z,4.68
2017-06-06T22:03:37.764Z,2.25
2017-06-06T22:06:05.337Z,5.35
2017-06-06T22:08:33.651Z,7.22
2017-06-06T22:11:01.262Z,8.73
2017-06-06T22:13:28.813Z,2.70
2017-06-06T22:15:56.365Z,2.65
2017-06-06T22:18:24.076Z,2.85
2017-06-06T22:20:51.636Z,2.17
2017-06-06T22:23:19.210Z,4.20
2017-06-06T22:25:46.946Z,2.30
2017-06-06T22:28:15.271Z,3.28
2017-06-06T22:30:42.848Z,8.40
2017-06-06T22:33:10.528Z,3.28
2017-06-06T22:35:38.093Z,4.00
2017-06-06T22:38:05.655Z,2.75
2017-06-06T22:40:33.240Z,2.20
2017-06-06T22:43:00.793Z,4.22
2017-06-06T22:45:28.352Z,3.17
2017-06-06T22:47:56.853Z,4.18
2017-06-06T22:50:24.409Z,3.33
2017-06-06T22:52:51.951Z,6.05
2017-06-06T22:55:19.752Z,5.55
2017-06-06T22:57:47.298Z,2.22
2017-06-06T23:00:14.849Z,4.43
2017-06-06T23:02:42.572Z,3.00
2017-06-06T23:05:10.120Z,5.03
2017-06-06T23:07:37.672Z,3.03
2017-06-06T23:10:05.396Z,2.60
2017-06-06T23:12:32.949Z,3.78
2017-06-06T23:15:00.511Z,4.03
2017-06-06T23:17:28.245Z,4.55
2017-06-06T23:19:56.570Z,2.78
2017-06-06T23:22:24.119Z,5.57
2017-06-06T23:24:52.233Z,2.28
2017-06-06T23:27:19.800Z,7.50
2017-06-06T23:29:47.351Z,4.32
2017-06-06T23:32:14.927Z,3.33
2017-06-06T23:34:42.483Z,3.70
2017-06-06T23:37:10.036Z,6.03
2017-06-06T23:39:37.649Z,2.95
2017-06-06T23:42:05.205Z,5.10
2017-06-06T23:44:32.762Z,3.45
2017-06-06T23:47:00.487Z,3.45
2017-06-06T23:49:28.805Z,5.07
2017-06-06T23:51:56.366Z,2.65
2017-06-06T23:54:24.038Z,2.80
2017-06-06T23:56:51.595Z,4.00
2017-06-06T23:59:19.148Z,4.25
